sensor_id;sensor_type;location;lat;lon;timestamp;P1;durP1;ratioP1;P2;durP2;ratioP2
60859;SDS011;46694;54.382;9.708;2024-02-21T00:01:03;22.17;;;7.10;;
60859;SDS011;46694;54.382;9.708;2024-02-21T00:03:29;23.83;;;7.45;;
60859;SDS011;46694;54.382;9.708;2024-02-21T00:05:55;27.80;;;6.95;;
60859;SDS011;46694;54.382;9.708;2024-02-21T00:08:21;24.55;;;7.47;;
60859;SDS011;46694;54.382;9.708;2024-02-21T00:10:46;20.88;;;7.07;;
60859;SDS011;46694;54.382;9.708;2024-02-21T00:13:12;16.38;;;6.57;;
60859;SDS011;46694;54.382;9.708;2024-02-21T00:15:38;21.83;;;8.20;;
60859;SDS011;46694;54.382;9.708;2024-02-21T00:18:04;24.58;;;7.43;;
60859;SDS011;46694;54.382;9.708;2024-02-21T00:20:35;26.65;;;7.57;;
60859;SDS011;46694;54.382;9.708;2024-02-21T00:23:01;24.52;;;9.02;;
60859;SDS011;46694;54.382;9.708;2024-02-21T00:25:27;20.10;;;7.82;;
60859;SDS011;46694;54.382;9.708;2024-02-21T00:27:53;18.75;;;7.60;;
60859;SDS011;46694;54.382;9.708;2024-02-21T00:30:19;27.33;;;8.50;;
60859;SDS011;46694;54.382;9.708;2024-02-21T00:32:46;25.40;;;8.15;;
60859;SDS011;46694;54.382;9.708;2024-02-21T00:35:11;22.80;;;7.32;;
60859;SDS011;46694;54.382;9.708;2024-02-21T00:37:38;21.13;;;8.27;;
60859;SDS011;46694;54.382;9.708;2024-02-21T00:40:04;20.95;;;7.47;;
60859;SDS011;46694;54.382;9.708;2024-02-21T00:42:31;17.40;;;7.88;;
60859;SDS011;46694;54.382;9.708;2024-02-21T00:44:57;22.65;;;7.68;;
60859;SDS011;46694;54.382;9.708;2024-02-21T00:47:23;19.05;;;8.13;;
60859;SDS011;46694;54.382;9.708;2024-02-21T00:49:49;24.38;;;7.75;;
60859;SDS011;46694;54.382;9.708;2024-02-21T00:52:15;21.30;;;8.70;;
60859;SDS011;46694;54.382;9.708;2024-02-21T00:54:40;20.40;;;7.72;;
60859;SDS011;46694;54.382;9.708;2024-02-21T00:57:06;26.15;;;8.40;;
60859;SDS011;46694;54.382;9.708;2024-02-21T00:59:32;20.70;;;7.68;;
60859;SDS011;46694;54.382;9.708;2024-02-21T01:01:58;16.73;;;6.90;;
60859;SDS011;46694;54.382;9.708;2024-02-21T01:04:24;19.77;;;7.20;;
60859;SDS011;46694;54.382;9.708;2024-02-21T01:06:50;21.60;;;6.85;;
60859;SDS011;46694;54.382;9.708;2024-02-21T01:09:16;18.48;;;7.00;;
60859;SDS011;46694;54.382;9.708;2024-02-21T01:11:42;15.90;;;7.88;;
60859;SDS011;46694;54.382;9.708;2024-02-21T01:14:07;17.80;;;6.63;;
60859;SDS011;46694;54.382;9.708;2024-02-21T01:16:33;16.17;;;6.32;;
60859;SDS011;46694;54.382;9.708;2024-02-21T01:19:02;11.75;;;5.78;;
60859;SDS011;46694;54.382;9.708;2024-02-21T01:21:28;12.68;;;5.78;;
60859;SDS011;46694;54.382;9.708;2024-02-21T01:23:54;13.48;;;5.32;;
60859;SDS011;46694;54.382;9.708;2024-02-21T01:26:20;12.10;;;5.75;;
60859;SDS011;46694;54.382;9.708;2024-02-21T01:28:46;11.65;;;5.05;;
60859;SDS011;46694;54.382;9.708;2024-02-21T01:31:12;11.05;;;4.80;;
60859;SDS011;46694;54.382;9.708;2024-02-21T01:33:40;14.55;;;4.93;;
60859;SDS011;46694;54.382;9.708;2024-02-21T01:36:06;9.27;;;4.38;;
60859;SDS011;46694;54.382;9.708;2024-02-21T01:38:32;12.82;;;4.47;;
60859;SDS011;46694;54.382;9.708;2024-02-21T01:40:59;12.13;;;5.30;;
60859;SDS011;46694;54.382;9.708;2024-02-21T01:43:25;10.30;;;5.07;;
60859;SDS011;46694;54.382;9.708;2024-02-21T01:45:55;9.57;;;4.90;;
60859;SDS011;46694;54.382;9.708;2024-02-21T01:48:22;8.80;;;5.20;;
60859;SDS011;46694;54.382;9.708;2024-02-21T01:50:49;9.38;;;5.10;;
60859;SDS011;46694;54.382;9.708;2024-02-21T01:53:48;9.40;;;5.25;;
60859;SDS011;46694;54.382;9.708;2024-02-21T01:56:10;9.60;;;5.28;;
60859;SDS011;46694;54.382;9.708;2024-02-21T01:58:39;12.68;;;6.30;;
60859;SDS011;46694;54.382;9.708;2024-02-21T02:01:07;13.70;;;6.75;;
60859;SDS011;46694;54.382;9.708;2024-02-21T02:03:34;12.02;;;6.32;;
60859;SDS011;46694;54.382;9.708;2024-02-21T02:06:00;15.43;;;6.78;;
60859;SDS011;46694;54.382;9.708;2024-02-21T02:08:27;14.52;;;7.20;;
60859;SDS011;46694;54.382;9.708;2024-02-21T02:10:52;16.88;;;7.85;;
60859;SDS011;46694;54.382;9.708;2024-02-21T02:13:18;15.02;;;7.18;;
60859;SDS011;46694;54.382;9.708;2024-02-21T02:15:45;13.45;;;6.55;;
60859;SDS011;46694;54.382;9.708;2024-02-21T02:18:13;16.90;;;7.13;;
60859;SDS011;46694;54.382;9.708;2024-02-21T02:20:40;9.80;;;5.47;;
60859;SDS011;46694;54.382;9.708;2024-02-21T02:23:10;13.00;;;6.88;;
60859;SDS011;46694;54.382;9.708;2024-02-21T02:25:38;11.82;;;5.68;;
60859;SDS011;46694;54.382;9.708;2024-02-21T02:28:07;11.73;;;5.80;;
60859;SDS011;46694;54.382;9.708;2024-02-21T02:30:36;10.93;;;5.10;;
60859;SDS011;46694;54.382;9.708;2024-02-21T02:33:03;12.73;;;5.07;;
60859;SDS011;46694;54.382;9.708;2024-02-21T02:35:30;11.00;;;3.92;;
60859;SDS011;46694;54.382;9.708;2024-02-21T02:37:56;8.93;;;3.97;;
60859;SDS011;46694;54.382;9.708;2024-02-21T02:40:22;8.95;;;4.30;;
60859;SDS011;46694;54.382;9.708;2024-02-21T02:42:48;10.40;;;4.43;;
60859;SDS011;46694;54.382;9.708;2024-02-21T02:45:15;8.15;;;3.97;;
60859;SDS011;46694;54.382;9.708;2024-02-21T02:47:41;10.27;;;3.67;;
60859;SDS011;46694;54.382;9.708;2024-02-21T02:50:09;9.00;;;3.45;;
60859;SDS011;46694;54.382;9.708;2024-02-21T02:52:35;9.63;;;3.67;;
60859;SDS011;46694;54.382;9.708;2024-02-21T02:55:01;8.25;;;3.17;;
60859;SDS011;46694;54.382;9.708;2024-02-21T02:57:27;14.05;;;4.00;;
60859;SDS011;46694;54.382;9.708;2024-02-21T02:59:53;10.98;;;3.95;;
60859;SDS011;46694;54.382;9.708;2024-02-21T03:02:19;9.10;;;3.45;;
60859;SDS011;46694;54.382;9.708;2024-02-21T03:04:45;7.65;;;3.20;;
60859;SDS011;46694;54.382;9.708;2024-02-21T03:07:11;7.55;;;2.95;;
60859;SDS011;46694;54.382;9.708;2024-02-21T03:09:40;6.78;;;2.83;;
60859;SDS011;46694;54.382;9.708;2024-02-21T03:12:07;7.45;;;2.72;;
60859;SDS011;46694;54.382;9.708;2024-02-21T03:14:34;8.85;;;2.67;;
60859;SDS011;46694;54.382;9.708;2024-02-21T03:17:00;7.10;;;2.55;;
60859;SDS011;46694;54.382;9.708;2024-02-21T03:19:27;6.85;;;2.45;;
60859;SDS011;46694;54.382;9.708;2024-02-21T03:21:54;8.38;;;2.13;;
60859;SDS011;46694;54.382;9.708;2024-02-21T03:24:20;7.15;;;1.83;;
60859;SDS011;46694;54.382;9.708;2024-02-21T03:26:47;9.65;;;2.40;;
60859;SDS011;46694;54.382;9.708;2024-02-21T03:29:14;8.52;;;2.47;;
60859;SDS011;46694;54.382;9.708;2024-02-21T03:31:41;10.10;;;2.70;;
60859;SDS011;46694;54.382;9.708;2024-02-21T03:34:07;8.73;;;2.65;;
60859;SDS011;46694;54.382;9.708;2024-02-21T03:36:35;9.73;;;1.90;;
60859;SDS011;46694;54.382;9.708;2024-02-21T03:39:01;11.85;;;2.13;;
60859;SDS011;46694;54.382;9.708;2024-02-21T03:41:27;6.18;;;2.20;;
60859;SDS011;46694;54.382;9.708;2024-02-21T03:43:54;12.30;;;2.53;;
60859;SDS011;46694;54.382;9.708;2024-02-21T03:46:19;8.82;;;2.60;;
60859;SDS011;46694;54.382;9.708;2024-02-21T03:51:33;11.05;;;3.28;;
60859;SDS011;46694;54.382;9.708;2024-02-21T03:53:59;9.98;;;2.45;;
60859;SDS011;46694;54.382;9.708;2024-02-21T03:56:25;9.93;;;3.25;;
60859;SDS011;46694;54.382;9.708;2024-02-21T03:58:50;9.50;;;2.97;;
60859;SDS011;46694;54.382;9.708;2024-02-21T04:01:16;13.45;;;3.10;;
60859;SDS011;46694;54.382;9.708;2024-02-21T04:03:45;10.10;;;2.80;;
60859;SDS011;46694;54.382;9.708;2024-02-21T04:06:11;12.80;;;3.17;;
60859;SDS011;46694;54.382;9.708;2024-02-21T04:08:37;11.23;;;3.10;;
60859;SDS011;46694;54.382;9.708;2024-02-21T04:11:04;20.13;;;3.08;;
60859;SDS011;46694;54.382;9.708;2024-02-21T04:13:29;12.50;;;2.95;;
60859;SDS011;46694;54.382;9.708;2024-02-21T04:15:55;10.32;;;2.90;;
60859;SDS011;46694;54.382;9.708;2024-02-21T04:18:21;9.27;;;2.60;;
60859;SDS011;46694;54.382;9.708;2024-02-21T04:20:47;11.15;;;3.00;;
60859;SDS011;46694;54.382;9.708;2024-02-21T04:23:13;15.27;;;2.90;;
60859;SDS011;46694;54.382;9.708;2024-02-21T04:25:39;13.93;;;3.03;;
60859;SDS011;46694;54.382;9.708;2024-02-21T04:28:05;14.15;;;2.50;;
60859;SDS011;46694;54.382;9.708;2024-02-21T04:30:31;11.93;;;2.50;;
60859;SDS011;46694;54.382;9.708;2024-02-21T04:32:57;13.20;;;2.97;;
60859;SDS011;46694;54.382;9.708;2024-02-21T04:35:22;14.55;;;2.75;;
60859;SDS011;46694;54.382;9.708;2024-02-21T04:37:49;11.05;;;3.28;;
60859;SDS011;46694;54.382;9.708;2024-02-21T04:40:15;12.95;;;2.90;;
60859;SDS011;46694;54.382;9.708;2024-02-21T04:42:41;12.70;;;2.88;;
60859;SDS011;46694;54.382;9.708;2024-02-21T04:45:08;12.52;;;2.83;;
60859;SDS011;46694;54.382;9.708;2024-02-21T04:47:34;16.50;;;3.80;;
60859;SDS011;46694;54.382;9.708;2024-02-21T04:50:00;27.98;;;3.75;;
60859;SDS011;46694;54.382;9.708;2024-02-21T04:52:26;12.13;;;2.78;;
60859;SDS011;46694;54.382;9.708;2024-02-21T04:54:52;12.63;;;3.10;;
60859;SDS011;46694;54.382;9.708;2024-02-21T04:57:18;13.88;;;3.47;;
60859;SDS011;46694;54.382;9.708;2024-02-21T04:59:44;11.68;;;3.10;;
60859;SDS011;46694;54.382;9.708;2024-02-21T05:02:10;11.00;;;2.80;;
60859;SDS011;46694;54.382;9.708;2024-02-21T05:04:36;12.70;;;2.70;;
60859;SDS011;46694;54.382;9.708;2024-02-21T05:07:03;15.00;;;2.58;;
60859;SDS011;46694;54.382;9.708;2024-02-21T05:09:30;16.08;;;2.63;;
60859;SDS011;46694;54.382;9.708;2024-02-21T05:11:56;13.15;;;3.03;;
60859;SDS011;46694;54.382;9.708;2024-02-21T05:14:24;16.25;;;2.80;;
60859;SDS011;46694;54.382;9.708;2024-02-21T05:16:51;10.75;;;2.55;;
60859;SDS011;46694;54.382;9.708;2024-02-21T05:19:18;13.40;;;3.13;;
60859;SDS011;46694;54.382;9.708;2024-02-21T05:21:44;11.18;;;2.20;;
60859;SDS011;46694;54.382;9.708;2024-02-21T05:24:11;19.13;;;4.32;;
60859;SDS011;46694;54.382;9.708;2024-02-21T05:26:37;13.85;;;2.47;;
60859;SDS011;46694;54.382;9.708;2024-02-21T05:29:03;15.15;;;2.70;;
60859;SDS011;46694;54.382;9.708;2024-02-21T05:31:42;14.18;;;3.28;;
60859;SDS011;46694;54.382;9.708;2024-02-21T05:34:28;18.65;;;3.13;;
60859;SDS011;46694;54.382;9.708;2024-02-21T05:36:54;8.98;;;2.30;;
60859;SDS011;46694;54.382;9.708;2024-02-21T05:39:20;14.90;;;2.97;;
60859;SDS011;46694;54.382;9.708;2024-02-21T05:41:48;12.68;;;3.03;;
60859;SDS011;46694;54.382;9.708;2024-02-21T05:44:14;12.70;;;2.50;;
60859;SDS011;46694;54.382;9.708;2024-02-21T05:46:40;16.92;;;3.33;;
60859;SDS011;46694;54.382;9.708;2024-02-21T05:49:06;17.85;;;2.75;;
60859;SDS011;46694;54.382;9.708;2024-02-21T05:51:35;14.55;;;2.70;;
60859;SDS011;46694;54.382;9.708;2024-02-21T05:54:01;14.75;;;2.60;;
60859;SDS011;46694;54.382;9.708;2024-02-21T05:56:27;15.73;;;3.53;;
60859;SDS011;46694;54.382;9.708;2024-02-21T05:58:53;18.70;;;3.30;;
60859;SDS011;46694;54.382;9.708;2024-02-21T06:01:19;15.73;;;2.42;;
60859;SDS011;46694;54.382;9.708;2024-02-21T06:03:46;19.25;;;3.22;;
60859;SDS011;46694;54.382;9.708;2024-02-21T06:06:12;17.15;;;3.08;;
60859;SDS011;46694;54.382;9.708;2024-02-21T06:08:39;18.08;;;4.15;;
60859;SDS011;46694;54.382;9.708;2024-02-21T06:11:06;20.52;;;4.60;;
60859;SDS011;46694;54.382;9.708;2024-02-21T06:13:31;18.48;;;5.43;;
60859;SDS011;46694;54.382;9.708;2024-02-21T06:15:57;13.60;;;3.08;;
60859;SDS011;46694;54.382;9.708;2024-02-21T06:18:23;18.05;;;3.15;;
60859;SDS011;46694;54.382;9.708;2024-02-21T06:20:49;16.30;;;2.95;;
60859;SDS011;46694;54.382;9.708;2024-02-21T06:23:15;17.30;;;2.53;;
60859;SDS011;46694;54.382;9.708;2024-02-21T06:25:42;16.75;;;3.10;;
60859;SDS011;46694;54.382;9.708;2024-02-21T06:28:08;17.77;;;3.28;;
60859;SDS011;46694;54.382;9.708;2024-02-21T06:30:34;15.57;;;2.75;;
60859;SDS011;46694;54.382;9.708;2024-02-21T06:33:00;15.18;;;3.30;;
60859;SDS011;46694;54.382;9.708;2024-02-21T06:35:27;12.25;;;2.60;;
60859;SDS011;46694;54.382;9.708;2024-02-21T06:37:54;12.02;;;2.40;;
60859;SDS011;46694;54.382;9.708;2024-02-21T06:40:23;11.95;;;2.65;;
60859;SDS011;46694;54.382;9.708;2024-02-21T06:42:52;18.40;;;4.35;;
60859;SDS011;46694;54.382;9.708;2024-02-21T06:45:17;15.50;;;3.28;;
60859;SDS011;46694;54.382;9.708;2024-02-21T06:47:43;15.60;;;3.03;;
60859;SDS011;46694;54.382;9.708;2024-02-21T06:50:09;14.57;;;2.88;;
60859;SDS011;46694;54.382;9.708;2024-02-21T06:52:38;13.35;;;2.88;;
60859;SDS011;46694;54.382;9.708;2024-02-21T06:55:04;22.45;;;3.25;;
60859;SDS011;46694;54.382;9.708;2024-02-21T06:57:30;13.18;;;2.92;;
60859;SDS011;46694;54.382;9.708;2024-02-21T06:59:56;16.80;;;3.28;;
60859;SDS011;46694;54.382;9.708;2024-02-21T07:02:22;19.08;;;3.08;;
60859;SDS011;46694;54.382;9.708;2024-02-21T07:04:47;18.17;;;2.83;;
60859;SDS011;46694;54.382;9.708;2024-02-21T07:07:13;15.18;;;3.67;;
60859;SDS011;46694;54.382;9.708;2024-02-21T07:09:39;15.93;;;2.60;;
60859;SDS011;46694;54.382;9.708;2024-02-21T07:12:05;16.55;;;3.08;;
60859;SDS011;46694;54.382;9.708;2024-02-21T07:14:32;15.18;;;2.67;;
60859;SDS011;46694;54.382;9.708;2024-02-21T07:16:58;20.25;;;2.92;;
60859;SDS011;46694;54.382;9.708;2024-02-21T07:19:24;15.15;;;2.75;;
60859;SDS011;46694;54.382;9.708;2024-02-21T07:21:49;14.68;;;2.65;;
60859;SDS011;46694;54.382;9.708;2024-02-21T07:24:16;18.10;;;3.13;;
60859;SDS011;46694;54.382;9.708;2024-02-21T07:26:42;22.08;;;3.95;;
60859;SDS011;46694;54.382;9.708;2024-02-21T07:29:08;18.17;;;2.72;;
60859;SDS011;46694;54.382;9.708;2024-02-21T07:31:41;14.02;;;3.20;;
60859;SDS011;46694;54.382;9.708;2024-02-21T07:34:08;14.93;;;2.72;;
60859;SDS011;46694;54.382;9.708;2024-02-21T07:36:34;22.08;;;3.00;;
60859;SDS011;46694;54.382;9.708;2024-02-21T07:39:00;21.13;;;3.60;;
60859;SDS011;46694;54.382;9.708;2024-02-21T07:41:26;13.68;;;2.70;;
60859;SDS011;46694;54.382;9.708;2024-02-21T07:43:53;19.95;;;3.13;;
60859;SDS011;46694;54.382;9.708;2024-02-21T07:46:19;14.10;;;2.97;;
60859;SDS011;46694;54.382;9.708;2024-02-21T07:48:45;16.02;;;2.83;;
60859;SDS011;46694;54.382;9.708;2024-02-21T07:51:12;14.60;;;3.30;;
60859;SDS011;46694;54.382;9.708;2024-02-21T07:53:40;12.25;;;2.72;;
60859;SDS011;46694;54.382;9.708;2024-02-21T07:56:13;18.85;;;3.65;;
60859;SDS011;46694;54.382;9.708;2024-02-21T07:58:40;15.63;;;3.00;;
60859;SDS011;46694;54.382;9.708;2024-02-21T08:01:07;23.67;;;3.40;;
60859;SDS011;46694;54.382;9.708;2024-02-21T08:03:34;21.23;;;3.30;;
60859;SDS011;46694;54.382;9.708;2024-02-21T08:06:00;15.65;;;3.38;;
60859;SDS011;46694;54.382;9.708;2024-02-21T08:08:26;15.65;;;2.63;;
60859;SDS011;46694;54.382;9.708;2024-02-21T08:10:52;19.55;;;2.83;;
60859;SDS011;46694;54.382;9.708;2024-02-21T08:13:18;16.30;;;3.45;;
60859;SDS011;46694;54.382;9.708;2024-02-21T08:15:46;17.23;;;2.58;;
60859;SDS011;46694;54.382;9.708;2024-02-21T08:18:12;16.52;;;2.78;;
60859;SDS011;46694;54.382;9.708;2024-02-21T08:20:38;22.05;;;2.47;;
60859;SDS011;46694;54.382;9.708;2024-02-21T08:23:15;13.40;;;3.45;;
60859;SDS011;46694;54.382;9.708;2024-02-21T08:25:41;16.38;;;2.58;;
60859;SDS011;46694;54.382;9.708;2024-02-21T08:28:07;19.27;;;2.78;;
60859;SDS011;46694;54.382;9.708;2024-02-21T08:30:33;17.85;;;3.08;;
60859;SDS011;46694;54.382;9.708;2024-02-21T08:32:59;17.90;;;2.97;;
60859;SDS011;46694;54.382;9.708;2024-02-21T08:35:25;15.70;;;3.13;;
60859;SDS011;46694;54.382;9.708;2024-02-21T08:37:51;16.45;;;2.58;;
60859;SDS011;46694;54.382;9.708;2024-02-21T08:40:17;19.40;;;3.08;;
60859;SDS011;46694;54.382;9.708;2024-02-21T08:42:46;16.73;;;2.80;;
60859;SDS011;46694;54.382;9.708;2024-02-21T08:45:12;16.00;;;2.10;;
60859;SDS011;46694;54.382;9.708;2024-02-21T08:47:41;12.07;;;2.00;;
60859;SDS011;46694;54.382;9.708;2024-02-21T08:50:07;15.40;;;2.63;;
60859;SDS011;46694;54.382;9.708;2024-02-21T08:52:37;13.95;;;2.55;;
60859;SDS011;46694;54.382;9.708;2024-02-21T08:55:03;17.35;;;2.50;;
60859;SDS011;46694;54.382;9.708;2024-02-21T08:57:29;17.02;;;2.67;;
60859;SDS011;46694;54.382;9.708;2024-02-21T09:00:01;15.60;;;2.40;;
60859;SDS011;46694;54.382;9.708;2024-02-21T09:02:41;14.90;;;2.90;;
60859;SDS011;46694;54.382;9.708;2024-02-21T09:05:10;12.63;;;2.67;;
60859;SDS011;46694;54.382;9.708;2024-02-21T09:07:36;14.63;;;3.25;;
60859;SDS011;46694;54.382;9.708;2024-02-21T09:10:02;14.00;;;2.40;;
60859;SDS011;46694;54.382;9.708;2024-02-21T09:12:28;14.07;;;2.55;;
60859;SDS011;46694;54.382;9.708;2024-02-21T09:14:54;18.73;;;2.58;;
60859;SDS011;46694;54.382;9.708;2024-02-21T09:17:20;12.43;;;2.78;;
60859;SDS011;46694;54.382;9.708;2024-02-21T09:19:46;20.77;;;3.05;;
60859;SDS011;46694;54.382;9.708;2024-02-21T09:22:13;15.38;;;3.08;;
60859;SDS011;46694;54.382;9.708;2024-02-21T09:24:39;17.60;;;2.58;;
60859;SDS011;46694;54.382;9.708;2024-02-21T09:27:05;13.52;;;2.53;;
60859;SDS011;46694;54.382;9.708;2024-02-21T09:29:31;12.80;;;2.35;;
60859;SDS011;46694;54.382;9.708;2024-02-21T09:31:58;14.80;;;2.28;;
60859;SDS011;46694;54.382;9.708;2024-02-21T09:34:24;14.82;;;2.53;;
60859;SDS011;46694;54.382;9.708;2024-02-21T09:36:50;12.45;;;2.35;;
60859;SDS011;46694;54.382;9.708;2024-02-21T09:39:17;13.70;;;2.92;;
60859;SDS011;46694;54.382;9.708;2024-02-21T09:41:45;11.55;;;2.13;;
60859;SDS011;46694;54.382;9.708;2024-02-21T09:44:17;12.32;;;3.00;;
60859;SDS011;46694;54.382;9.708;2024-02-21T09:47:02;14.73;;;2.22;;
60859;SDS011;46694;54.382;9.708;2024-02-21T09:49:30;13.15;;;2.90;;
60859;SDS011;46694;54.382;9.708;2024-02-21T09:52:03;11.73;;;2.72;;
60859;SDS011;46694;54.382;9.708;2024-02-21T09:54:32;10.88;;;2.22;;
60859;SDS011;46694;54.382;9.708;2024-02-21T09:57:02;17.95;;;2.40;;
60859;SDS011;46694;54.382;9.708;2024-02-21T09:59:30;17.65;;;2.92;;
60859;SDS011;46694;54.382;9.708;2024-02-21T10:01:57;14.20;;;2.65;;
60859;SDS011;46694;54.382;9.708;2024-02-21T10:04:26;9.55;;;1.90;;
60859;SDS011;46694;54.382;9.708;2024-02-21T10:06:55;12.18;;;2.10;;
60859;SDS011;46694;54.382;9.708;2024-02-21T10:09:22;10.70;;;2.30;;
60859;SDS011;46694;54.382;9.708;2024-02-21T10:11:55;8.18;;;1.77;;
60859;SDS011;46694;54.382;9.708;2024-02-21T10:14:32;10.88;;;2.40;;
60859;SDS011;46694;54.382;9.708;2024-02-21T10:16:58;12.80;;;2.47;;
60859;SDS011;46694;54.382;9.708;2024-02-21T10:19:24;8.93;;;2.30;;
60859;SDS011;46694;54.382;9.708;2024-02-21T10:27:19;8.93;;;2.17;;
60859;SDS011;46694;54.382;9.708;2024-02-21T10:29:49;8.43;;;2.13;;
60859;SDS011;46694;54.382;9.708;2024-02-21T10:32:17;12.75;;;1.90;;
60859;SDS011;46694;54.382;9.708;2024-02-21T10:34:43;9.90;;;2.00;;
60859;SDS011;46694;54.382;9.708;2024-02-21T10:37:10;10.68;;;2.10;;
60859;SDS011;46694;54.382;9.708;2024-02-21T10:39:40;10.80;;;2.08;;
60859;SDS011;46694;54.382;9.708;2024-02-21T10:42:07;11.57;;;2.10;;
60859;SDS011;46694;54.382;9.708;2024-02-21T10:47:08;9.82;;;1.83;;
60859;SDS011;46694;54.382;9.708;2024-02-21T10:49:39;11.68;;;2.58;;
60859;SDS011;46694;54.382;9.708;2024-02-21T10:55:20;12.18;;;2.15;;
60859;SDS011;46694;54.382;9.708;2024-02-21T10:57:55;6.18;;;2.05;;
60859;SDS011;46694;54.382;9.708;2024-02-21T11:00:22;11.05;;;2.20;;
60859;SDS011;46694;54.382;9.708;2024-02-21T11:02:52;14.23;;;2.25;;
60859;SDS011;46694;54.382;9.708;2024-02-21T11:05:18;11.98;;;2.70;;
60859;SDS011;46694;54.382;9.708;2024-02-21T11:07:44;21.73;;;15.63;;
60859;SDS011;46694;54.382;9.708;2024-02-21T11:10:23;18.83;;;10.93;;
60859;SDS011;46694;54.382;9.708;2024-02-21T11:12:53;43.40;;;19.98;;
60859;SDS011;46694;54.382;9.708;2024-02-21T11:15:32;53.67;;;25.38;;
60859;SDS011;46694;54.382;9.708;2024-02-21T11:17:58;43.63;;;19.30;;
60859;SDS011;46694;54.382;9.708;2024-02-21T11:20:36;12.05;;;6.55;;
60859;SDS011;46694;54.382;9.708;2024-02-21T11:23:03;10.98;;;2.95;;
60859;SDS011;46694;54.382;9.708;2024-02-21T11:25:29;12.98;;;5.60;;
60859;SDS011;46694;54.382;9.708;2024-02-21T11:28:05;9.43;;;3.58;;
60859;SDS011;46694;54.382;9.708;2024-02-21T11:30:32;10.85;;;6.72;;
60859;SDS011;46694;54.382;9.708;2024-02-21T11:33:03;12.63;;;3.30;;
60859;SDS011;46694;54.382;9.708;2024-02-21T11:35:34;11.65;;;3.15;;
60859;SDS011;46694;54.382;9.708;2024-02-21T11:38:07;13.43;;;6.43;;
60859;SDS011;46694;54.382;9.708;2024-02-21T11:40:41;13.50;;;4.97;;
60859;SDS011;46694;54.382;9.708;2024-02-21T11:43:11;12.95;;;7.05;;
60859;SDS011;46694;54.382;9.708;2024-02-21T11:45:37;13.13;;;8.60;;
60859;SDS011;46694;54.382;9.708;2024-02-21T11:48:05;13.43;;;6.82;;
60859;SDS011;46694;54.382;9.708;2024-02-21T11:50:32;14.93;;;4.90;;
60859;SDS011;46694;54.382;9.708;2024-02-21T11:53:01;17.80;;;9.05;;
60859;SDS011;46694;54.382;9.708;2024-02-21T11:55:27;23.63;;;9.07;;
60859;SDS011;46694;54.382;9.708;2024-02-21T11:57:53;26.25;;;10.45;;
60859;SDS011;46694;54.382;9.708;2024-02-21T12:00:19;30.45;;;15.90;;
60859;SDS011;46694;54.382;9.708;2024-02-21T12:02:45;16.10;;;5.70;;
60859;SDS011;46694;54.382;9.708;2024-02-21T12:05:12;14.27;;;5.70;;
60859;SDS011;46694;54.382;9.708;2024-02-21T12:07:39;16.90;;;8.50;;
60859;SDS011;46694;54.382;9.708;2024-02-21T12:10:12;18.70;;;8.75;;
60859;SDS011;46694;54.382;9.708;2024-02-21T12:12:39;10.02;;;5.22;;
60859;SDS011;46694;54.382;9.708;2024-02-21T12:15:05;28.30;;;12.32;;
60859;SDS011;46694;54.382;9.708;2024-02-21T12:17:33;16.55;;;4.57;;
60859;SDS011;46694;54.382;9.708;2024-02-21T12:20:00;12.95;;;5.70;;
60859;SDS011;46694;54.382;9.708;2024-02-21T12:22:34;23.05;;;9.30;;
60859;SDS011;46694;54.382;9.708;2024-02-21T12:25:04;14.30;;;5.70;;
60859;SDS011;46694;54.382;9.708;2024-02-21T12:27:42;10.05;;;4.35;;
60859;SDS011;46694;54.382;9.708;2024-02-21T12:30:08;9.48;;;3.78;;
60859;SDS011;46694;54.382;9.708;2024-02-21T12:32:35;8.98;;;4.65;;
60859;SDS011;46694;54.382;9.708;2024-02-21T12:35:02;14.50;;;6.88;;
60859;SDS011;46694;54.382;9.708;2024-02-21T12:37:29;7.53;;;3.00;;
60859;SDS011;46694;54.382;9.708;2024-02-21T12:39:54;8.18;;;3.70;;
60859;SDS011;46694;54.382;9.708;2024-02-21T12:42:20;9.50;;;2.63;;
60859;SDS011;46694;54.382;9.708;2024-02-21T12:44:48;7.93;;;2.80;;
60859;SDS011;46694;54.382;9.708;2024-02-21T12:47:14;11.05;;;3.97;;
60859;SDS011;46694;54.382;9.708;2024-02-21T12:49:40;10.02;;;3.50;;
60859;SDS011;46694;54.382;9.708;2024-02-21T12:52:06;8.57;;;2.85;;
60859;SDS011;46694;54.382;9.708;2024-02-21T12:54:32;7.70;;;3.47;;
60859;SDS011;46694;54.382;9.708;2024-02-21T13:00:09;8.38;;;3.70;;
60859;SDS011;46694;54.382;9.708;2024-02-21T13:02:36;8.35;;;3.90;;
60859;SDS011;46694;54.382;9.708;2024-02-21T13:05:02;9.50;;;4.97;;
60859;SDS011;46694;54.382;9.708;2024-02-21T13:07:29;10.30;;;5.10;;
60859;SDS011;46694;54.382;9.708;2024-02-21T13:09:57;11.20;;;5.90;;
60859;SDS011;46694;54.382;9.708;2024-02-21T13:12:23;9.25;;;4.95;;
60859;SDS011;46694;54.382;9.708;2024-02-21T13:14:51;10.85;;;6.60;;
60859;SDS011;46694;54.382;9.708;2024-02-21T13:17:17;7.72;;;3.88;;
60859;SDS011;46694;54.382;9.708;2024-02-21T13:19:43;8.07;;;3.88;;
60859;SDS011;46694;54.382;9.708;2024-02-21T13:22:09;7.65;;;4.00;;
60859;SDS011;46694;54.382;9.708;2024-02-21T13:24:34;7.72;;;3.75;;
60859;SDS011;46694;54.382;9.708;2024-02-21T13:27:01;8.68;;;3.38;;
60859;SDS011;46694;54.382;9.708;2024-02-21T13:29:28;10.65;;;4.68;;
60859;SDS011;46694;54.382;9.708;2024-02-21T13:31:54;10.63;;;3.92;;
60859;SDS011;46694;54.382;9.708;2024-02-21T13:34:19;9.52;;;3.80;;
60859;SDS011;46694;54.382;9.708;2024-02-21T13:36:45;9.40;;;4.05;;
60859;SDS011;46694;54.382;9.708;2024-02-21T13:39:11;9.23;;;4.10;;
60859;SDS011;46694;54.382;9.708;2024-02-21T13:41:40;10.45;;;3.95;;
60859;SDS011;46694;54.382;9.708;2024-02-21T13:44:07;9.15;;;3.83;;
60859;SDS011;46694;54.382;9.708;2024-02-21T13:46:34;11.20;;;3.97;;
60859;SDS011;46694;54.382;9.708;2024-02-21T13:49:04;9.30;;;4.53;;
60859;SDS011;46694;54.382;9.708;2024-02-21T13:51:32;12.50;;;4.25;;
60859;SDS011;46694;54.382;9.708;2024-02-21T13:54:02;10.77;;;3.80;;
60859;SDS011;46694;54.382;9.708;2024-02-21T13:56:29;9.65;;;4.47;;
60859;SDS011;46694;54.382;9.708;2024-02-21T13:58:57;12.55;;;4.68;;
60859;SDS011;46694;54.382;9.708;2024-02-21T14:01:25;11.35;;;4.30;;
60859;SDS011;46694;54.382;9.708;2024-02-21T14:03:53;11.48;;;5.15;;
60859;SDS011;46694;54.382;9.708;2024-02-21T14:06:19;11.27;;;4.20;;
60859;SDS011;46694;54.382;9.708;2024-02-21T14:08:45;13.73;;;5.07;;
60859;SDS011;46694;54.382;9.708;2024-02-21T14:11:10;11.50;;;5.35;;
60859;SDS011;46694;54.382;9.708;2024-02-21T14:13:36;11.77;;;5.35;;
60859;SDS011;46694;54.382;9.708;2024-02-21T14:16:02;11.70;;;5.60;;
60859;SDS011;46694;54.382;9.708;2024-02-21T14:18:36;14.13;;;5.55;;
60859;SDS011;46694;54.382;9.708;2024-02-21T14:21:03;15.73;;;5.90;;
60859;SDS011;46694;54.382;9.708;2024-02-21T14:23:29;14.25;;;6.43;;
60859;SDS011;46694;54.382;9.708;2024-02-21T14:25:55;15.63;;;6.80;;
60859;SDS011;46694;54.382;9.708;2024-02-21T14:28:21;17.95;;;6.60;;
60859;SDS011;46694;54.382;9.708;2024-02-21T14:30:47;15.40;;;6.53;;
60859;SDS011;46694;54.382;9.708;2024-02-21T14:33:14;16.08;;;6.40;;
60859;SDS011;46694;54.382;9.708;2024-02-21T14:35:40;15.25;;;6.55;;
60859;SDS011;46694;54.382;9.708;2024-02-21T14:38:07;14.15;;;6.30;;
60859;SDS011;46694;54.382;9.708;2024-02-21T14:40:32;16.33;;;6.38;;
60859;SDS011;46694;54.382;9.708;2024-02-21T14:42:58;15.77;;;6.75;;
60859;SDS011;46694;54.382;9.708;2024-02-21T14:45:25;16.65;;;7.05;;
60859;SDS011;46694;54.382;9.708;2024-02-21T14:47:51;20.60;;;7.50;;
60859;SDS011;46694;54.382;9.708;2024-02-21T14:50:17;14.73;;;7.03;;
60859;SDS011;46694;54.382;9.708;2024-02-21T14:52:43;14.05;;;6.82;;